Time;durP1;ratioP1;P1;durP2;ratioP2;P2;SDS_P1;SDS_P2;PMS_P1;PMS_P2;Temp;Humidity;BMP_temperature;BMP_pressure;BME280_temperature;BME280_humidity;BME280_pressure;Samples;Min_cycle;Max_cycle;Signal;HPM_P1;HPM_P2
2023/09/22 00:01:57;;;;;;;1.57;0.70;;;;;;;16.38;100.00;155569.47;4941993;29;20483;-76
2023/09/22 00:04:24;;;;;;;0.90;0.40;;;;;;;16.28;100.00;155543.47;4933870;28;20459;-76
2023/09/22 00:06:51;;;;;;;2.00;0.77;;;;;;;16.24;100.00;155534.34;4941359;29;20451;-76
2023/09/22 00:09:17;;;;;;;1.20;0.50;;;;;;;16.13;100.00;155504.44;4951339;28;20451;-76
2023/09/22 00:11:44;;;;;;;1.30;0.70;;;;;;;16.08;100.00;155492.75;4916366;29;20987;-76
2023/09/22 00:14:10;;;;;;;1.30;0.60;;;;;;;16.12;100.00;155501.88;4951529;29;20486;-76
2023/09/22 00:16:38;;;;;;;1.50;0.70;;;;;;;16.02;100.00;155475.88;4949352;29;20462;-76
2023/09/22 00:19:06;;;;;;;1.20;0.43;;;;;;;16.03;100.00;155478.44;4949548;29;20455;-76
2023/09/22 00:21:33;;;;;;;1.03;0.53;;;;;;;15.94;100.00;155456.31;4949620;28;20439;-76
2023/09/22 00:23:59;;;;;;;1.67;0.57;;;;;;;15.96;100.00;155460.25;4932952;29;20465;-76
2023/09/22 00:26:27;;;;;;;2.00;0.60;;;;;;;15.88;100.00;155439.44;4951269;29;21006;-76
2023/09/22 00:28:53;;;;;;;1.23;0.83;;;;;;;15.90;100.00;155444.63;4933518;29;20487;-76
2023/09/22 00:31:20;;;;;;;1.87;0.80;;;;;;;15.91;100.00;155447.25;4933626;29;20548;-76
2023/09/22 00:33:48;;;;;;;1.80;0.50;;;;;;;15.87;100.00;155438.13;4949178;28;20850;-76
2023/09/22 00:36:16;;;;;;;1.40;0.67;;;;;;;15.87;100.00;155438.13;4933311;29;20452;-76
2023/09/22 00:38:43;;;;;;;1.10;0.50;;;;;;;15.87;100.00;155436.81;4933587;29;20443;-76
2023/09/22 00:41:10;;;;;;;1.50;0.50;;;;;;;15.76;100.00;155410.84;4917458;29;20455;-76
2023/09/22 00:43:36;;;;;;;1.37;0.70;;;;;;;15.82;100.00;155425.13;4933146;29;20854;-76
2023/09/22 00:46:03;;;;;;;1.27;0.60;;;;;;;15.72;100.00;155399.16;4920664;29;20447;-76
2023/09/22 00:48:32;;;;;;;1.30;0.90;;;;;;;15.76;100.00;155409.53;4933589;29;20488;-75
2023/09/22 00:51:01;;;;;;;1.40;0.70;;;;;;;15.64;100.00;155379.66;4938420;29;20462;-76
2023/09/22 00:53:29;;;;;;;1.00;0.50;;;;;;;15.61;100.00;155370.53;4917503;29;20497;-76
2023/09/22 00:55:56;;;;;;;1.43;0.73;;;;;;;15.54;100.00;155353.63;4933289;29;20447;-75
2023/09/22 00:58:23;;;;;;;2.10;0.60;;;;;;;15.52;100.00;155348.44;4950340;28;20461;-76
2023/09/22 01:00:52;;;;;;;1.10;0.70;;;;;;;15.54;100.00;155353.63;4952675;28;20534;-76
2023/09/22 01:03:19;;;;;;;1.33;0.70;;;;;;;15.53;100.00;155351.06;4951660;28;20450;-76
2023/09/22 01:05:46;;;;;;;1.03;0.60;;;;;;;15.48;100.00;155336.75;4949848;28;20536;-76
2023/09/22 01:08:14;;;;;;;1.30;0.60;;;;;;;15.47;100.00;155335.44;4952157;28;20552;-76
2023/09/22 01:10:42;;;;;;;1.33;0.83;;;;;;;15.46;100.00;155331.56;4967616;28;20465;-76
2023/09/22 01:13:09;;;;;;;1.40;1.13;;;;;;;15.46;100.00;155332.81;4952058;28;20878;-75
2023/09/22 01:15:37;;;;;;;1.37;0.80;;;;;;;15.42;100.00;155322.41;4960172;28;20438;-76
2023/09/22 01:18:04;;;;;;;1.20;0.57;;;;;;;15.42;100.00;155322.41;4948834;28;20438;-76
2023/09/22 01:20:32;;;;;;;1.50;0.80;;;;;;;15.36;100.00;155305.47;4952712;28;20482;-76
2023/09/22 01:23:01;;;;;;;1.33;0.67;;;;;;;15.36;100.00;155305.47;4968734;28;20521;-76
2023/09/22 01:25:28;;;;;;;1.50;0.90;;;;;;;15.37;100.00;155308.09;4964313;28;20450;-76
2023/09/22 01:27:54;;;;;;;1.40;0.80;;;;;;;15.35;100.00;155302.91;4948266;28;20478;-76
2023/09/22 01:30:21;;;;;;;2.20;0.80;;;;;;;15.27;100.00;155284.69;4948179;28;20479;-76
2023/09/22 01:32:47;;;;;;;1.40;0.80;;;;;;;15.24;100.00;155276.94;4969197;28;20501;-76
2023/09/22 01:35:14;;;;;;;1.37;0.70;;;;;;;15.21;100.00;155267.81;4964264;28;20447;-76
2023/09/22 01:37:47;;;;;;;1.10;0.50;;;;;;;15.14;100.00;155249.66;4966992;28;20462;-75
2023/09/22 01:40:17;;;;;;;1.90;0.80;;;;;;;15.13;100.00;155248.34;4951421;28;20450;-76
2023/09/22 01:42:43;;;;;;;3.17;0.77;;;;;;;15.11;100.00;155243.16;4960113;28;20517;-76
2023/09/22 01:45:11;;;;;;;1.70;0.83;;;;;;;15.15;100.00;155252.22;4950783;28;20989;-76
2023/09/22 01:47:39;;;;;;;0.83;0.50;;;;;;;15.15;100.00;155253.53;4951216;28;20572;-76
2023/09/22 01:50:08;;;;;;;1.10;0.80;;;;;;;15.16;100.00;155256.13;4951551;28;20478;-76
2023/09/22 01:52:35;;;;;;;1.70;1.07;;;;;;;15.13;100.00;155247.03;4951834;28;20439;-76
2023/09/22 01:55:03;;;;;;;1.27;0.67;;;;;;;15.07;100.00;155231.41;4949611;28;20491;-76
2023/09/22 01:57:32;;;;;;;1.30;0.60;;;;;;;15.06;100.00;155228.84;4946734;28;20454;-75
2023/09/22 01:59:58;;;;;;;1.23;0.70;;;;;;;15.02;100.00;155218.44;4925996;28;20516;-76
2023/09/22 02:02:25;;;;;;;2.00;1.10;;;;;;;14.97;100.00;155205.44;4942816;28;20490;-76
2023/09/22 02:04:52;;;;;;;1.30;0.60;;;;;;;15.02;100.00;155218.44;4947476;28;20466;-76
2023/09/22 02:07:19;;;;;;;1.50;0.70;;;;;;;15.03;100.00;155222.34;4970739;28;20450;-76
2023/09/22 02:09:46;;;;;;;1.87;0.90;;;;;;;14.93;100.00;155196.34;4969194;28;20592;-76
2023/09/22 02:12:13;;;;;;;1.33;0.67;;;;;;;14.95;100.00;155200.25;4961278;28;20497;-76
2023/09/22 02:14:41;;;;;;;1.30;0.60;;;;;;;14.95;100.00;155200.25;4967439;28;20488;-75
2023/09/22 02:17:07;;;;;;;2.53;1.20;;;;;;;14.95;100.00;155200.25;4972201;28;20473;-76
2023/09/22 02:19:35;;;;;;;2.23;0.90;;;;;;;14.94;100.00;155198.94;4967172;28;20478;-76
2023/09/22 02:22:02;;;;;;;1.87;1.20;;;;;;;15.00;100.00;155214.56;4971660;28;20458;-76
2023/09/22 02:24:28;;;;;;;1.50;0.70;;;;;;;14.98;100.00;155208.06;4968367;28;20995;-76
2023/09/22 02:26:55;;;;;;;2.47;0.97;;;;;;;15.00;100.00;155213.25;4942056;28;20454;-76
2023/09/22 02:29:22;;;;;;;1.03;0.70;;;;;;;15.01;100.00;155217.13;4959479;28;20482;-76
2023/09/22 02:31:49;;;;;;;1.20;0.90;;;;;;;15.03;100.00;155221.03;4967891;28;20480;-76
2023/09/22 02:34:20;;;;;;;1.50;0.80;;;;;;;14.99;100.00;155210.63;4970881;28;20466;-76
2023/09/22 02:36:47;;;;;;;1.20;0.57;;;;;;;14.96;100.00;155202.81;4968433;28;20458;-76
2023/09/22 02:39:15;;;;;;;1.27;0.60;;;;;;;14.95;100.00;155200.25;4968799;28;20454;-76
2023/09/22 02:41:42;;;;;;;1.97;0.87;;;;;;;14.89;100.00;155184.66;4970537;28;20470;-76
2023/09/22 02:44:09;;;;;;;1.40;0.80;;;;;;;14.86;100.00;155178.16;4973084;28;20454;-76
2023/09/22 02:46:36;;;;;;;2.30;0.93;;;;;;;14.87;100.00;155180.78;4971329;28;20447;-76
2023/09/22 02:49:05;;;;;;;1.20;0.60;;;;;;;14.91;100.00;155191.16;4970002;28;20498;-76
2023/09/22 02:51:31;;;;;;;2.13;1.00;;;;;;;14.92;100.00;155192.47;4970727;28;20458;-76
2023/09/22 02:53:58;;;;;;;2.40;0.90;;;;;;;14.87;100.00;155180.78;4972796;28;20704;-76
2023/09/22 02:56:25;;;;;;;1.17;0.83;;;;;;;14.88;100.00;155182.09;4968120;28;20872;-76
2023/09/22 02:58:51;;;;;;;1.87;0.70;;;;;;;14.85;100.00;155174.28;4949008;28;20557;-76
2023/09/22 03:01:18;;;;;;;1.80;0.90;;;;;;;14.85;100.00;155174.28;4968841;28;20856;-76
2023/09/22 03:03:46;;;;;;;1.80;0.90;;;;;;;14.85;100.00;155175.53;4971282;28;20567;-76
2023/09/22 03:06:14;;;;;;;1.57;1.00;;;;;;;14.87;100.00;155179.47;4975438;28;20480;-76
2023/09/22 03:08:43;;;;;;;3.40;1.00;;;;;;;14.86;100.00;155176.84;4973530;28;20497;-76
2023/09/22 03:11:10;;;;;;;1.40;0.80;;;;;;;14.81;100.00;155165.19;4969041;28;20454;-76
2023/09/22 03:13:37;;;;;;;1.50;0.90;;;;;;;14.83;100.00;155169.06;4968939;28;20465;-76
2023/09/22 03:16:04;;;;;;;2.40;1.00;;;;;;;14.78;100.00;155157.38;4970042;28;20442;-76
2023/09/22 03:18:31;;;;;;;1.60;1.27;;;;;;;14.83;100.00;155169.06;4947715;28;20952;-77
2023/09/22 03:20:58;;;;;;;1.53;0.80;;;;;;;14.84;100.00;155171.66;4970851;28;20458;-76
2023/09/22 03:23:26;;;;;;;1.53;0.90;;;;;;;14.81;100.00;155165.19;4973470;28;20453;-76
2023/09/22 03:25:52;;;;;;;1.10;0.70;;;;;;;14.76;100.00;155152.19;4965845;28;20473;-76
2023/09/22 03:28:20;;;;;;;1.60;0.80;;;;;;;14.76;100.00;155150.88;4969270;28;20482;-76
2023/09/22 03:30:46;;;;;;;3.30;1.10;;;;;;;14.75;100.00;155148.25;4954211;28;20460;-76
2023/09/22 03:33:13;;;;;;;1.00;0.60;;;;;;;14.73;100.00;155143.09;4980015;28;20469;-76
2023/09/22 03:35:40;;;;;;;1.90;1.07;;;;;;;14.71;100.00;155139.22;4958556;28;20961;-76
2023/09/22 03:38:09;;;;;;;1.63;0.93;;;;;;;14.72;100.00;155140.50;4948625;28;20806;-76
2023/09/22 03:40:41;;;;;;;1.20;0.87;;;;;;;14.68;100.00;155130.09;4950509;28;20517;-76
2023/09/22 03:43:08;;;;;;;1.77;1.10;;;;;;;14.69;100.00;155132.72;4965094;28;20442;-76
2023/09/22 03:45:35;;;;;;;1.20;0.80;;;;;;;14.69;100.00;155132.72;4954025;28;20454;-76
2023/09/22 03:48:03;;;;;;;1.20;0.70;;;;;;;14.71;100.00;155139.22;4963846;28;20467;-76
2023/09/22 03:50:30;;;;;;;2.10;0.80;;;;;;;14.71;100.00;155139.22;4976544;28;20977;-76
2023/09/22 03:52:56;;;;;;;1.50;0.93;;;;;;;14.69;100.00;155134.03;4969736;28;20557;-77
2023/09/22 03:55:23;;;;;;;1.30;0.80;;;;;;;14.66;100.00;155126.22;4969998;28;20450;-77
2023/09/22 03:57:51;;;;;;;1.73;1.10;;;;;;;14.68;100.00;155131.41;4966933;28;20465;-77
2023/09/22 04:00:19;;;;;;;2.43;0.77;;;;;;;14.66;100.00;155126.22;4967977;28;20473;-77
2023/09/22 04:02:46;;;;;;;1.30;0.80;;;;;;;14.71;100.00;155137.91;4946170;28;20479;-77
2023/09/22 04:05:13;;;;;;;1.70;1.33;;;;;;;14.68;100.00;155131.41;4963813;28;20468;-77
2023/09/22 04:07:40;;;;;;;3.13;0.93;;;;;;;14.66;100.00;155124.91;4952203;28;20461;-77
2023/09/22 04:10:08;;;;;;;1.30;0.80;;;;;;;14.67;100.00;155128.78;4952355;28;20976;-77
2023/09/22 04:12:35;;;;;;;1.60;1.00;;;;;;;14.67;100.00;155128.78;4967034;28;20856;-77
2023/09/22 04:15:05;;;;;;;1.33;0.80;;;;;;;14.69;100.00;155132.72;4968678;28;21099;-77
2023/09/22 04:17:32;;;;;;;1.40;0.80;;;;;;;14.61;100.00;155114.50;4968397;28;20508;-77
2023/09/22 04:19:59;;;;;;;1.93;0.73;;;;;;;14.63;100.00;155119.72;4965344;28;20934;-77
2023/09/22 04:22:28;;;;;;;1.77;1.03;;;;;;;14.67;100.00;155127.53;4966934;28;20469;-77
2023/09/22 04:25:00;;;;;;;1.20;0.83;;;;;;;14.61;100.00;155114.50;4970858;28;20549;-77
2023/09/22 04:27:32;;;;;;;1.63;0.97;;;;;;;14.59;100.00;155108.00;4970288;28;20812;-76
2023/09/22 04:29:59;;;;;;;1.73;0.90;;;;;;;14.62;100.00;155117.09;4967042;28;20572;-76
2023/09/22 04:32:28;;;;;;;1.67;0.90;;;;;;;14.59;100.00;155108.00;4952271;28;20466;-76
2023/09/22 04:34:55;;;;;;;1.20;0.60;;;;;;;14.58;100.00;155106.75;4953573;28;20453;-76
2023/09/22 04:37:23;;;;;;;2.30;1.20;;;;;;;14.60;100.00;155110.63;4967155;28;20501;-76
2023/09/22 04:39:49;;;;;;;1.40;0.90;;;;;;;14.60;100.00;155110.63;4969473;28;20458;-76
2023/09/22 04:42:16;;;;;;;1.90;0.77;;;;;;;14.53;100.00;155093.72;4970593;28;20442;-76
2023/09/22 04:44:43;;;;;;;1.57;0.93;;;;;;;14.53;100.00;155093.72;4962282;28;20447;-76
2023/09/22 04:47:09;;;;;;;3.13;1.10;;;;;;;14.52;100.00;155089.84;4964577;28;20481;-75
2023/09/22 04:49:37;;;;;;;1.73;1.43;;;;;;;14.52;100.00;155089.84;4962493;28;20486;-76
2023/09/22 04:52:04;;;;;;;2.80;1.17;;;;;;;14.53;100.00;155093.72;4951135;29;20499;-76
2023/09/22 04:54:30;;;;;;;2.47;1.30;;;;;;;14.55;100.00;155097.63;4956939;28;20462;-76
2023/09/22 04:56:57;;;;;;;2.07;1.37;;;;;;;14.47;100.00;155078.16;4966120;28;20462;-76
2023/09/22 04:59:24;;;;;;;2.47;1.20;;;;;;;14.49;100.00;155083.34;4970179;28;20450;-76
2023/09/22 05:01:50;;;;;;;2.33;1.13;;;;;;;14.45;100.00;155072.97;4958108;28;20483;-76
2023/09/22 05:04:17;;;;;;;3.43;1.30;;;;;;;14.47;100.00;155076.84;4944767;29;20455;-76
2023/09/22 05:06:45;;;;;;;1.57;1.00;;;;;;;14.44;100.00;155070.38;4929502;29;20466;-76
2023/09/22 05:09:12;;;;;;;1.73;1.33;;;;;;;14.40;100.00;155059.94;4937462;28;20477;-76
2023/09/22 05:11:38;;;;;;;2.90;1.20;;;;;;;14.37;100.00;155052.19;4922642;29;20451;-76
2023/09/22 05:14:05;;;;;;;3.93;1.30;;;;;;;14.34;100.00;155044.41;4937070;28;20443;-76
2023/09/22 05:16:31;;;;;;;2.23;1.50;;;;;;;14.33;100.00;155041.78;4921822;29;20689;-76
2023/09/22 05:18:59;;;;;;;2.20;1.40;;;;;;;14.33;100.00;155041.78;4920269;29;21243;-78
2023/09/22 05:21:26;;;;;;;2.40;1.43;;;;;;;14.31;100.00;155035.25;4940358;29;20483;-77
2023/09/22 05:23:54;;;;;;;5.70;1.40;;;;;;;14.31;100.00;155036.59;4938364;29;20515;-77
2023/09/22 05:26:21;;;;;;;2.20;1.47;;;;;;;14.31;100.00;155035.25;4938550;29;20455;-77
2023/09/22 05:28:49;;;;;;;2.73;1.30;;;;;;;14.34;100.00;155044.41;4927637;29;20490;-76
2023/09/22 05:31:16;;;;;;;2.03;1.60;;;;;;;14.35;100.00;155046.97;4938365;28;20831;-77
2023/09/22 05:33:43;;;;;;;1.73;1.20;;;;;;;14.36;100.00;155049.59;4938607;29;20510;-76
2023/09/22 05:36:11;;;;;;;2.00;1.30;;;;;;;14.36;100.00;155049.59;4921046;29;20456;-77
2023/09/22 05:38:37;;;;;;;2.10;1.50;;;;;;;14.36;100.00;155049.59;4936723;28;20763;-77
2023/09/22 05:41:05;;;;;;;2.67;1.80;;;;;;;14.34;100.00;155044.41;4939618;29;20458;-77
2023/09/22 05:43:32;;;;;;;2.60;1.53;;;;;;;14.36;100.00;155048.28;4936488;28;20472;-77
2023/09/22 05:45:59;;;;;;;2.67;1.50;;;;;;;14.34;100.00;155043.09;4928702;29;20459;-75
2023/09/22 05:48:26;;;;;;;2.37;1.70;;;;;;;14.34;100.00;155044.41;4902619;29;21261;-76
2023/09/22 05:50:57;;;;;;;2.17;1.10;;;;;;;14.35;100.00;155046.97;4939062;28;20464;-75
2023/09/22 05:53:25;;;;;;;1.80;1.10;;;;;;;14.33;100.00;155041.78;4942207;28;20645;-77
2023/09/22 05:55:52;;;;;;;2.90;1.17;;;;;;;14.36;100.00;155049.59;4943832;29;20994;-77
2023/09/22 05:58:19;;;;;;;2.17;1.20;;;;;;;14.37;100.00;155052.19;4925314;29;20510;-77
2023/09/22 06:00:46;;;;;;;2.33;1.40;;;;;;;14.39;100.00;155057.38;4926523;28;20452;-78
2023/09/22 06:03:13;;;;;;;1.83;1.10;;;;;;;14.41;100.00;155061.25;4964118;28;20451;-77
2023/09/22 06:05:39;;;;;;;2.00;1.20;;;;;;;14.41;100.00;155061.25;4963307;28;20869;-77
2023/09/22 06:08:06;;;;;;;2.30;1.20;;;;;;;14.42;100.00;155065.19;4981474;28;20476;-77
2023/09/22 06:10:33;;;;;;;2.70;1.17;;;;;;;14.41;100.00;155062.56;4950342;28;20474;-77
2023/09/22 06:13:00;;;;;;;1.80;1.10;;;;;;;14.40;100.00;155059.94;4962300;28;20529;-76
2023/09/22 06:15:28;;;;;;;2.70;1.30;;;;;;;14.41;100.00;155061.25;4982828;28;20461;-77
2023/09/22 06:17:55;;;;;;;1.90;1.30;;;;;;;14.42;100.00;155065.19;4949669;28;20450;-77
2023/09/22 06:20:22;;;;;;;1.90;1.17;;;;;;;14.41;100.00;155062.56;4982629;28;20464;-76
2023/09/22 06:22:49;;;;;;;2.00;1.10;;;;;;;14.43;100.00;155067.75;4982510;28;20890;-77
2023/09/22 06:25:16;;;;;;;3.23;1.00;;;;;;;14.40;100.00;155058.69;4948615;28;20459;-78
2023/09/22 06:27:43;;;;;;;6.87;2.73;;;;;;;14.40;100.00;155059.94;4962406;28;20980;-77
2023/09/22 06:30:11;;;;;;;2.20;1.13;;;;;;;14.40;100.00;155059.94;4965265;28;20466;-77
2023/09/22 06:32:45;;;;;;;1.50;1.00;;;;;;;14.44;100.00;155069.06;4981933;28;20803;-77
2023/09/22 06:35:13;;;;;;;1.93;1.10;;;;;;;14.39;100.00;155057.38;4947041;28;20504;-75
2023/09/22 06:37:41;;;;;;;1.40;1.03;;;;;;;14.40;100.00;155059.94;4947547;28;20461;-77
2023/09/22 06:40:11;;;;;;;2.10;1.20;;;;;;;14.43;100.00;155067.75;4962024;28;20452;-77
2023/09/22 06:42:39;;;;;;;1.73;1.07;;;;;;;14.45;100.00;155071.69;4975725;28;20453;-78
2023/09/22 06:45:09;;;;;;;2.67;1.40;;;;;;;14.43;100.00;155067.75;4967268;28;20465;-77
2023/09/22 06:47:36;;;;;;;2.47;0.90;;;;;;;14.49;100.00;155083.34;4982708;28;20970;-76
2023/09/22 06:50:08;;;;;;;2.57;1.10;;;;;;;14.52;100.00;155091.16;4964243;28;20860;-77
2023/09/22 06:52:34;;;;;;;5.33;1.40;;;;;;;14.54;100.00;155096.31;4980255;28;20557;-77
2023/09/22 06:55:01;;;;;;;1.73;1.07;;;;;;;14.58;100.00;155105.44;4963907;28;20480;-77
2023/09/22 06:57:28;;;;;;;2.50;1.40;;;;;;;14.56;100.00;155101.50;4946807;28;20474;-77
2023/09/22 06:59:55;;;;;;;3.50;2.10;;;;;;;14.57;100.00;155104.13;4948983;28;20454;-77
2023/09/22 07:02:22;;;;;;;3.17;2.30;;;;;;;14.62;100.00;155115.81;4970846;28;20485;-77
2023/09/22 07:04:49;;;;;;;5.10;2.27;;;;;;;14.64;100.00;155122.28;4972988;28;20452;-77
2023/09/22 07:07:18;;;;;;;4.20;2.30;;;;;;;14.66;100.00;155124.91;4976926;28;20972;-78
2023/09/22 07:09:45;;;;;;;3.90;2.00;;;;;;;14.66;100.00;155124.91;4976500;28;20474;-77
2023/09/22 07:12:11;;;;;;;3.60;2.10;;;;;;;14.66;100.00;155126.22;4960300;28;20473;-77
2023/09/22 07:14:38;;;;;;;2.40;1.70;;;;;;;14.69;100.00;155132.72;4978430;28;20461;-77
2023/09/22 07:17:04;;;;;;;3.23;1.77;;;;;;;14.67;100.00;155128.78;4993547;28;20458;-77
2023/09/22 07:19:31;;;;;;;2.57;1.73;;;;;;;14.69;100.00;155132.72;4962306;28;20549;-77
2023/09/22 07:21:58;;;;;;;4.67;1.60;;;;;;;14.71;100.00;155137.91;4961234;28;20845;-77
2023/09/22 07:24:26;;;;;;;2.60;1.37;;;;;;;14.77;100.00;155153.50;4960475;28;20619;-77
2023/09/22 07:26:53;;;;;;;2.43;1.50;;;;;;;14.72;100.00;155140.50;4963098;28;20567;-77
2023/09/22 07:29:20;;;;;;;1.97;1.30;;;;;;;14.74;100.00;155147.00;4972800;28;20482;-77
2023/09/22 07:31:47;;;;;;;1.83;1.20;;;;;;;14.78;100.00;155157.38;4972677;28;20450;-77
2023/09/22 07:34:14;;;;;;;3.00;1.57;;;;;;;14.81;100.00;155163.88;4978601;28;20516;-77
2023/09/22 07:36:40;;;;;;;1.30;1.07;;;;;;;14.85;100.00;155175.53;4976690;28;20457;-77
2023/09/22 07:39:09;;;;;;;2.20;1.30;;;;;;;14.88;100.00;155183.34;4959830;28;21235;-77
2023/09/22 07:41:37;;;;;;;4.23;1.00;;;;;;;14.90;100.00;155187.28;4962638;28;20457;-76
2023/09/22 07:44:04;;;;;;;2.60;1.10;;;;;;;14.94;100.00;155197.66;4956656;28;20469;-77
2023/09/22 07:46:31;;;;;;;1.90;1.23;;;;;;;14.98;100.00;155209.38;4974512;28;20507;-77
2023/09/22 07:48:57;;;;;;;1.90;1.20;;;;;;;15.00;100.00;155213.25;4976280;28;20465;-77
2023/09/22 07:51:24;;;;;;;1.53;1.10;;;;;;;15.04;100.00;155223.63;4976559;28;20509;-77
2023/09/22 07:53:51;;;;;;;1.50;1.10;;;;;;;15.05;100.00;155226.22;4976293;28;20480;-76
2023/09/22 07:56:18;;;;;;;1.90;1.30;;;;;;;15.04;100.00;155223.63;4974385;28;21813;-77
2023/09/22 07:58:46;;;;;;;1.70;1.20;;;;;;;14.96;100.00;155204.13;4976263;28;20465;-77
2023/09/22 08:01:15;;;;;;;2.00;1.37;;;;;;;14.96;100.00;155202.81;4976204;28;20568;-77
2023/09/22 08:03:43;;;;;;;5.10;1.50;;;;;;;14.97;100.00;155205.44;4959577;28;20504;-77
2023/09/22 08:06:10;;;;;;;2.83;1.57;;;;;;;15.00;100.00;155214.56;4973189;28;20462;-76
2023/09/22 08:08:36;;;;;;;2.40;1.30;;;;;;;15.04;100.00;155223.63;4976663;28;20597;-76
2023/09/22 08:11:04;;;;;;;3.87;1.27;;;;;;;15.03;100.00;155221.03;4962107;28;20482;-76
2023/09/22 08:13:32;;;;;;;1.67;1.23;;;;;;;15.03;100.00;155222.34;4959429;28;20655;-76
2023/09/22 08:16:00;;;;;;;2.40;1.00;;;;;;;15.05;100.00;155226.22;4970405;28;21968;-76
2023/09/22 08:18:27;;;;;;;1.57;1.23;;;;;;;15.06;100.00;155228.84;4979052;28;20551;-76
2023/09/22 08:20:54;;;;;;;1.50;1.07;;;;;;;15.08;100.00;155234.03;4977591;28;20453;-76
2023/09/22 08:23:21;;;;;;;3.53;1.73;;;;;;;15.15;100.00;155252.22;4977685;28;20914;-77
2023/09/22 08:25:49;;;;;;;2.97;1.27;;;;;;;15.22;100.00;155271.69;4975601;28;20836;-77
2023/09/22 08:28:15;;;;;;;3.47;1.20;;;;;;;15.27;100.00;155284.69;4970532;28;20585;-77
2023/09/22 08:30:42;;;;;;;1.83;1.40;;;;;;;15.36;100.00;155306.78;4974386;28;20977;-77
2023/09/22 08:33:10;;;;;;;1.70;1.30;;;;;;;15.42;100.00;155321.09;4975438;28;20508;-76
2023/09/22 08:35:37;;;;;;;1.67;1.30;;;;;;;15.48;100.00;155338.06;4975120;28;20458;-76
2023/09/22 08:38:05;;;;;;;3.07;1.53;;;;;;;15.54;100.00;155353.63;4976550;28;20549;-76
2023/09/22 08:40:31;;;;;;;2.20;0.90;;;;;;;15.66;100.00;155384.84;4977072;28;20460;-77
2023/09/22 08:42:58;;;;;;;2.93;1.40;;;;;;;15.69;100.00;155392.66;4978126;28;20477;-77
2023/09/22 08:45:25;;;;;;;1.70;1.07;;;;;;;15.73;100.00;155403.03;4977876;28;21029;-77
2023/09/22 08:47:52;;;;;;;1.70;1.13;;;;;;;15.74;100.00;155405.66;4973565;28;20538;-77
2023/09/22 08:50:21;;;;;;;4.60;1.20;;;;;;;15.78;100.00;155416.03;4976778;28;20478;-77
2023/09/22 08:52:51;;;;;;;2.33;1.20;;;;;;;15.83;100.00;155429.03;4973363;28;20454;-77
2023/09/22 08:55:19;;;;;;;2.03;1.10;;;;;;;15.93;100.00;155453.75;4975963;28;20545;-77
2023/09/22 08:57:48;;;;;;;1.77;1.07;;;;;;;16.02;100.00;155475.88;4960129;28;20454;-77
2023/09/22 09:00:18;;;;;;;3.10;1.30;;;;;;;16.03;100.00;155478.44;4988207;28;20454;-77
2023/09/22 09:02:46;;;;;;;1.77;1.10;;;;;;;16.07;100.00;155490.13;4974023;28;20991;-77
2023/09/22 09:05:22;;;;;;;3.20;1.10;;;;;;;16.08;100.00;155491.44;4961011;28;20453;-77
2023/09/22 09:07:49;;;;;;;2.00;0.97;;;;;;;16.12;100.00;155503.16;4943684;28;20497;-77
2023/09/22 09:10:26;;;;;;;1.70;1.10;;;;;;;16.17;100.00;155516.16;4971275;28;20487;-77
2023/09/22 09:12:52;;;;;;;2.47;1.30;;;;;;;16.20;100.00;155522.66;4940348;28;20466;-77
2023/09/22 09:15:21;;;;;;;2.30;1.17;;;;;;;16.13;100.00;155504.44;4975422;28;23520;-77
2023/09/22 09:18:03;;;;;;;1.57;0.87;;;;;;;16.16;100.00;155512.25;4955822;28;20461;-76
2023/09/22 09:20:31;;;;;;;1.23;0.97;;;;;;;16.12;100.00;155501.88;4958170;28;21039;-76
2023/09/22 09:22:58;;;;;;;2.70;1.13;;;;;;;16.07;100.00;155488.88;4958421;28;21021;-77
2023/09/22 09:25:25;;;;;;;1.70;1.00;;;;;;;16.07;100.00;155490.13;4975718;28;20454;-77
2023/09/22 09:28:00;;;;;;;2.17;1.13;;;;;;;16.05;100.00;155483.63;4942229;28;20466;-77
2023/09/22 09:30:29;;;;;;;1.60;1.00;;;;;;;16.10;100.00;155497.94;4941809;28;20473;-77
2023/09/22 09:33:09;;;;;;;2.97;1.30;;;;;;;16.16;100.00;155512.25;4972345;28;20461;-77
2023/09/22 09:35:38;;;;;;;2.27;1.10;;;;;;;16.19;100.00;155520.03;4944862;28;20814;-77
2023/09/22 09:38:05;;;;;;;2.10;1.10;;;;;;;16.18;100.00;155517.44;4958647;28;20501;-77
2023/09/22 09:40:32;;;;;;;2.30;0.90;;;;;;;16.20;100.00;155522.66;4974050;28;20461;-77
2023/09/22 09:43:01;;;;;;;1.43;0.90;;;;;;;16.20;100.00;155522.66;4942056;28;20521;-77
2023/09/22 09:45:30;;;;;;;2.03;1.27;;;;;;;16.18;100.00;155517.44;4946025;28;20532;-77
2023/09/22 09:48:00;;;;;;;2.13;0.90;;;;;;;16.20;100.00;155523.94;4956489;28;21067;-77
2023/09/22 09:50:27;;;;;;;1.47;1.07;;;;;;;16.26;100.00;155538.25;4973566;28;20521;-77
2023/09/22 09:52:55;;;;;;;2.97;1.23;;;;;;;16.30;100.00;155549.97;4940509;28;20446;-77
2023/09/22 09:55:24;;;;;;;2.97;1.10;;;;;;;16.36;100.00;155564.28;4958497;28;20829;-77
2023/09/22 09:57:53;;;;;;;1.97;0.90;;;;;;;16.37;100.00;155566.84;4958489;28;21173;-77
2023/09/22 10:00:20;;;;;;;1.33;0.90;;;;;;;16.33;100.00;155557.78;4974025;28;20462;-77
2023/09/22 10:02:48;;;;;;;2.00;1.27;;;;;;;16.36;100.00;155565.56;4975797;28;20486;-77
2023/09/22 10:05:16;;;;;;;2.40;1.00;;;;;;;16.38;100.00;155569.47;4977281;28;20852;-77
2023/09/22 10:07:43;;;;;;;2.20;1.10;;;;;;;16.34;100.00;155559.06;4958090;28;20442;-77
2023/09/22 10:10:12;;;;;;;1.47;0.70;;;;;;;16.38;100.00;155569.47;4958174;28;21003;-77
2023/09/22 10:12:40;;;;;;;2.20;0.80;;;;;;;16.43;100.00;155583.78;4959376;28;20477;-78
2023/09/22 10:15:07;;;;;;;2.33;0.90;;;;;;;16.50;100.00;155600.66;4959280;28;20826;-78
2023/09/22 10:17:35;;;;;;;1.57;0.80;;;;;;;16.52;100.00;155604.59;4959347;28;20458;-77
2023/09/22 10:20:06;;;;;;;4.03;1.00;;;;;;;16.52;100.00;155604.59;4975527;28;20461;-77
2023/09/22 10:22:32;;;;;;;1.63;1.10;;;;;;;16.56;100.00;155616.34;4957672;28;20563;-77
2023/09/22 10:25:24;;;;;;;1.40;0.90;;;;;;;16.64;100.00;155637.16;4975653;28;20555;-78
2023/09/22 10:27:55;;;;;;;1.00;0.80;;;;;;;16.77;100.00;155670.97;4950947;28;20873;-78
2023/09/22 10:30:22;;;;;;;2.13;0.70;;;;;;;16.82;100.00;155684.00;4960016;28;20995;-78
2023/09/22 10:32:49;;;;;;;1.40;0.80;;;;;;;16.96;100.00;155719.13;4958616;28;20748;-77
2023/09/22 10:35:40;;;;;;;2.60;2.00;;;;;;;17.07;100.00;155746.44;4975283;28;20864;-78
2023/09/22 10:38:09;;;;;;;1.27;0.97;;;;;;;17.19;100.00;155777.66;4960181;28;20445;-78
2023/09/22 10:40:40;;;;;;;1.43;0.80;;;;;;;17.24;100.00;155791.97;4967131;28;21035;-78
2023/09/22 10:43:07;;;;;;;1.57;0.90;;;;;;;17.28;100.00;155801.09;4980139;28;20808;-78
2023/09/22 10:45:33;;;;;;;1.10;0.80;;;;;;;17.33;98.71;155814.13;4978427;28;20822;-77
2023/09/22 10:48:01;;;;;;;1.53;0.80;;;;;;;17.42;99.51;155838.81;4946710;28;21388;-78
2023/09/22 10:50:30;;;;;;;1.20;0.67;;;;;;;17.40;98.81;155833.63;4979206;28;20485;-77
2023/09/22 10:52:58;;;;;;;1.40;0.77;;;;;;;17.41;95.48;155834.94;4977994;28;20458;-78
2023/09/22 10:55:26;;;;;;;2.50;0.80;;;;;;;17.41;96.04;155836.25;4959086;28;20869;-78
2023/09/22 10:57:54;;;;;;;1.40;0.73;;;;;;;17.41;94.81;155836.25;4946684;28;20558;-78
2023/09/22 11:00:22;;;;;;;1.27;0.60;;;;;;;17.44;95.21;155844.06;4976515;28;20540;-78
2023/09/22 11:02:48;;;;;;;1.20;0.80;;;;;;;17.51;94.99;155860.97;4977128;28;20583;-78
2023/09/22 11:05:16;;;;;;;1.60;0.67;;;;;;;17.57;94.08;155876.66;4978300;28;20556;-78
2023/09/22 11:07:43;;;;;;;2.30;0.80;;;;;;;17.56;92.02;155874.03;4960052;28;20460;-78
2023/09/22 11:10:10;;;;;;;2.10;0.80;;;;;;;17.59;91.86;155883.16;4977721;28;20536;-78
2023/09/22 11:12:36;;;;;;;1.33;0.80;;;;;;;17.59;91.80;155881.84;4978948;28;20852;-78
2023/09/22 11:15:05;;;;;;;1.50;0.90;;;;;;;17.58;88.93;155880.53;4946962;28;20454;-78
2023/09/22 11:17:39;;;;;;;1.83;0.70;;;;;;;17.64;89.62;155896.16;4945116;28;20458;-79
2023/09/22 11:20:12;;;;;;;1.40;0.60;;;;;;;17.64;92.87;155894.84;4958014;28;20943;-77